sensor_id;sensor_type;location;lat;lon;timestamp;P1;durP1;ratioP1;P2;durP2;ratioP2
3369;SDS011;42042;51.948;7.628;2022-12-07T00:00:50;23.05;;;17.38;;
3369;SDS011;42042;51.948;7.628;2022-12-07T00:03:17;20.63;;;16.50;;
3369;SDS011;42042;51.948;7.628;2022-12-07T00:05:44;22.35;;;14.63;;
3369;SDS011;42042;51.948;7.628;2022-12-07T00:08:12;19.10;;;15.38;;
3369;SDS011;42042;51.948;7.628;2022-12-07T00:10:40;19.92;;;14.27;;
3369;SDS011;42042;51.948;7.628;2022-12-07T00:13:07;18.15;;;15.52;;
3369;SDS011;42042;51.948;7.628;2022-12-07T00:15:34;14.18;;;12.13;;
3369;SDS011;42042;51.948;7.628;2022-12-07T00:18:01;18.08;;;15.30;;
3369;SDS011;42042;51.948;7.628;2022-12-07T00:20:28;15.88;;;13.10;;
3369;SDS011;42042;51.948;7.628;2022-12-07T00:22:56;20.58;;;13.13;;
3369;SDS011;42042;51.948;7.628;2022-12-07T00:25:24;18.95;;;14.30;;
3369;SDS011;42042;51.948;7.628;2022-12-07T00:27:52;17.02;;;14.02;;
3369;SDS011;42042;51.948;7.628;2022-12-07T00:30:21;15.35;;;13.32;;
3369;SDS011;42042;51.948;7.628;2022-12-07T00:32:48;16.58;;;13.55;;
3369;SDS011;42042;51.948;7.628;2022-12-07T00:35:16;13.52;;;11.55;;
3369;SDS011;42042;51.948;7.628;2022-12-07T00:37:43;14.88;;;12.55;;
3369;SDS011;42042;51.948;7.628;2022-12-07T00:40:10;17.88;;;12.45;;
3369;SDS011;42042;51.948;7.628;2022-12-07T00:42:39;15.32;;;11.88;;
3369;SDS011;42042;51.948;7.628;2022-12-07T00:45:07;17.10;;;13.95;;
3369;SDS011;42042;51.948;7.628;2022-12-07T00:47:34;14.90;;;13.23;;
3369;SDS011;42042;51.948;7.628;2022-12-07T00:50:01;15.32;;;11.60;;
3369;SDS011;42042;51.948;7.628;2022-12-07T00:52:28;14.90;;;12.50;;
3369;SDS011;42042;51.948;7.628;2022-12-07T00:54:56;16.40;;;12.80;;
3369;SDS011;42042;51.948;7.628;2022-12-07T00:57:23;23.50;;;13.10;;
3369;SDS011;42042;51.948;7.628;2022-12-07T00:59:51;15.43;;;11.23;;
3369;SDS011;42042;51.948;7.628;2022-12-07T01:02:20;15.73;;;12.43;;
3369;SDS011;42042;51.948;7.628;2022-12-07T01:04:47;13.93;;;11.48;;
3369;SDS011;42042;51.948;7.628;2022-12-07T01:07:14;16.92;;;12.50;;
3369;SDS011;42042;51.948;7.628;2022-12-07T01:09:42;16.35;;;11.27;;
3369;SDS011;42042;51.948;7.628;2022-12-07T01:12:09;13.43;;;10.85;;
3369;SDS011;42042;51.948;7.628;2022-12-07T01:14:36;18.25;;;11.95;;
3369;SDS011;42042;51.948;7.628;2022-12-07T01:17:05;11.68;;;8.90;;
3369;SDS011;42042;51.948;7.628;2022-12-07T01:19:32;12.77;;;11.27;;
3369;SDS011;42042;51.948;7.628;2022-12-07T01:21:59;14.50;;;11.98;;
3369;SDS011;42042;51.948;7.628;2022-12-07T01:24:26;15.77;;;10.85;;
3369;SDS011;42042;51.948;7.628;2022-12-07T01:26:53;16.17;;;11.77;;
3369;SDS011;42042;51.948;7.628;2022-12-07T01:29:21;13.65;;;11.00;;
3369;SDS011;42042;51.948;7.628;2022-12-07T01:31:48;15.07;;;11.70;;
3369;SDS011;42042;51.948;7.628;2022-12-07T01:34:17;15.30;;;12.00;;
3369;SDS011;42042;51.948;7.628;2022-12-07T01:36:44;13.27;;;10.95;;
3369;SDS011;42042;51.948;7.628;2022-12-07T01:39:11;17.58;;;12.77;;
3369;SDS011;42042;51.948;7.628;2022-12-07T01:41:39;14.50;;;12.50;;
3369;SDS011;42042;51.948;7.628;2022-12-07T01:44:16;15.10;;;12.63;;
3369;SDS011;42042;51.948;7.628;2022-12-07T01:46:44;18.02;;;11.45;;
3369;SDS011;42042;51.948;7.628;2022-12-07T01:49:12;16.52;;;12.20;;
3369;SDS011;42042;51.948;7.628;2022-12-07T01:51:42;15.80;;;11.65;;
3369;SDS011;42042;51.948;7.628;2022-12-07T01:54:10;15.70;;;12.52;;
3369;SDS011;42042;51.948;7.628;2022-12-07T01:56:38;20.60;;;13.25;;
3369;SDS011;42042;51.948;7.628;2022-12-07T01:59:08;14.43;;;11.82;;
3369;SDS011;42042;51.948;7.628;2022-12-07T02:01:36;22.90;;;12.57;;
3369;SDS011;42042;51.948;7.628;2022-12-07T02:04:03;17.48;;;12.52;;
3369;SDS011;42042;51.948;7.628;2022-12-07T02:06:31;24.02;;;12.95;;
3369;SDS011;42042;51.948;7.628;2022-12-07T02:08:59;17.83;;;11.98;;
3369;SDS011;42042;51.948;7.628;2022-12-07T02:11:27;17.08;;;11.98;;
3369;SDS011;42042;51.948;7.628;2022-12-07T02:13:54;17.48;;;13.73;;
3369;SDS011;42042;51.948;7.628;2022-12-07T02:16:24;18.33;;;12.98;;
3369;SDS011;42042;51.948;7.628;2022-12-07T02:18:56;15.68;;;11.57;;
3369;SDS011;42042;51.948;7.628;2022-12-07T02:21:29;15.10;;;12.73;;
3369;SDS011;42042;51.948;7.628;2022-12-07T02:26:58;19.38;;;12.93;;
3369;SDS011;42042;51.948;7.628;2022-12-07T02:29:29;15.43;;;11.85;;
3369;SDS011;42042;51.948;7.628;2022-12-07T02:32:00;19.17;;;13.40;;
3369;SDS011;42042;51.948;7.628;2022-12-07T02:34:34;13.18;;;11.30;;
3369;SDS011;42042;51.948;7.628;2022-12-07T02:37:04;19.95;;;13.55;;
3369;SDS011;42042;51.948;7.628;2022-12-07T02:39:37;17.60;;;13.63;;
3369;SDS011;42042;51.948;7.628;2022-12-07T02:42:07;15.65;;;12.90;;
3369;SDS011;42042;51.948;7.628;2022-12-07T02:44:38;18.58;;;12.82;;
3369;SDS011;42042;51.948;7.628;2022-12-07T02:47:07;16.30;;;11.98;;
3369;SDS011;42042;51.948;7.628;2022-12-07T02:49:36;14.57;;;11.63;;
3369;SDS011;42042;51.948;7.628;2022-12-07T02:52:04;18.25;;;14.27;;
3369;SDS011;42042;51.948;7.628;2022-12-07T02:54:32;25.33;;;13.27;;
3369;SDS011;42042;51.948;7.628;2022-12-07T02:57:00;19.70;;;13.57;;
3369;SDS011;42042;51.948;7.628;2022-12-07T02:59:31;19.70;;;12.45;;
3369;SDS011;42042;51.948;7.628;2022-12-07T03:02:06;18.80;;;12.85;;
3369;SDS011;42042;51.948;7.628;2022-12-07T03:04:38;17.52;;;10.85;;
3369;SDS011;42042;51.948;7.628;2022-12-07T03:07:10;17.95;;;13.30;;
3369;SDS011;42042;51.948;7.628;2022-12-07T03:09:41;20.58;;;12.95;;
3369;SDS011;42042;51.948;7.628;2022-12-07T03:12:11;18.88;;;11.52;;
3369;SDS011;42042;51.948;7.628;2022-12-07T03:14:40;23.55;;;13.15;;
3369;SDS011;42042;51.948;7.628;2022-12-07T03:17:12;16.67;;;12.98;;
3369;SDS011;42042;51.948;7.628;2022-12-07T03:19:39;17.63;;;12.15;;
3369;SDS011;42042;51.948;7.628;2022-12-07T03:22:08;21.13;;;12.40;;
3369;SDS011;42042;51.948;7.628;2022-12-07T03:24:38;19.52;;;12.32;;
3369;SDS011;42042;51.948;7.628;2022-12-07T03:27:08;22.35;;;13.18;;
3369;SDS011;42042;51.948;7.628;2022-12-07T03:29:37;20.92;;;12.23;;
3369;SDS011;42042;51.948;7.628;2022-12-07T03:32:05;19.63;;;12.27;;
3369;SDS011;42042;51.948;7.628;2022-12-07T03:34:36;18.77;;;12.57;;
3369;SDS011;42042;51.948;7.628;2022-12-07T03:37:07;16.92;;;12.13;;
3369;SDS011;42042;51.948;7.628;2022-12-07T03:39:36;19.92;;;12.43;;
3369;SDS011;42042;51.948;7.628;2022-12-07T03:42:05;17.40;;;11.27;;
3369;SDS011;42042;51.948;7.628;2022-12-07T03:44:33;18.08;;;13.05;;
3369;SDS011;42042;51.948;7.628;2022-12-07T03:47:02;20.58;;;14.25;;
3369;SDS011;42042;51.948;7.628;2022-12-07T03:49:31;15.48;;;11.90;;
3369;SDS011;42042;51.948;7.628;2022-12-07T03:52:02;22.45;;;13.35;;
3369;SDS011;42042;51.948;7.628;2022-12-07T03:54:31;19.52;;;13.43;;
3369;SDS011;42042;51.948;7.628;2022-12-07T03:57:00;24.38;;;14.80;;
3369;SDS011;42042;51.948;7.628;2022-12-07T03:59:28;15.40;;;11.65;;
3369;SDS011;42042;51.948;7.628;2022-12-07T04:01:56;14.77;;;12.13;;
3369;SDS011;42042;51.948;7.628;2022-12-07T04:04:24;22.23;;;12.15;;
3369;SDS011;42042;51.948;7.628;2022-12-07T04:06:51;20.52;;;13.15;;
3369;SDS011;42042;51.948;7.628;2022-12-07T04:09:20;14.50;;;10.85;;
3369;SDS011;42042;51.948;7.628;2022-12-07T04:11:47;16.10;;;10.85;;
3369;SDS011;42042;51.948;7.628;2022-12-07T04:14:14;18.70;;;12.43;;
3369;SDS011;42042;51.948;7.628;2022-12-07T04:16:44;14.57;;;9.77;;
3369;SDS011;42042;51.948;7.628;2022-12-07T04:19:12;20.15;;;11.50;;
3369;SDS011;42042;51.948;7.628;2022-12-07T04:21:39;18.67;;;10.80;;
3369;SDS011;42042;51.948;7.628;2022-12-07T04:24:06;16.65;;;10.63;;
3369;SDS011;42042;51.948;7.628;2022-12-07T04:26:35;14.77;;;8.70;;
3369;SDS011;42042;51.948;7.628;2022-12-07T04:29:02;18.45;;;9.15;;
3369;SDS011;42042;51.948;7.628;2022-12-07T04:31:29;12.45;;;7.63;;
3369;SDS011;42042;51.948;7.628;2022-12-07T04:33:57;22.50;;;9.93;;
3369;SDS011;42042;51.948;7.628;2022-12-07T04:36:24;12.50;;;8.50;;
3369;SDS011;42042;51.948;7.628;2022-12-07T04:38:52;13.48;;;8.50;;
3369;SDS011;42042;51.948;7.628;2022-12-07T04:41:20;15.30;;;9.60;;
3369;SDS011;42042;51.948;7.628;2022-12-07T04:43:53;12.90;;;9.02;;
3369;SDS011;42042;51.948;7.628;2022-12-07T04:46:21;13.40;;;7.65;;
3369;SDS011;42042;51.948;7.628;2022-12-07T04:48:48;11.55;;;9.10;;
3369;SDS011;42042;51.948;7.628;2022-12-07T04:51:18;12.85;;;8.90;;
3369;SDS011;42042;51.948;7.628;2022-12-07T04:53:46;8.68;;;7.72;;
3369;SDS011;42042;51.948;7.628;2022-12-07T04:56:13;11.80;;;6.90;;
3369;SDS011;42042;51.948;7.628;2022-12-07T04:58:40;12.70;;;8.38;;
3369;SDS011;42042;51.948;7.628;2022-12-07T05:01:09;12.02;;;7.10;;
3369;SDS011;42042;51.948;7.628;2022-12-07T05:03:36;15.60;;;8.63;;
3369;SDS011;42042;51.948;7.628;2022-12-07T05:06:04;11.60;;;7.57;;
3369;SDS011;42042;51.948;7.628;2022-12-07T05:08:31;19.10;;;7.65;;
3369;SDS011;42042;51.948;7.628;2022-12-07T05:10:59;9.68;;;6.95;;
3369;SDS011;42042;51.948;7.628;2022-12-07T05:13:26;11.30;;;7.00;;
3369;SDS011;42042;51.948;7.628;2022-12-07T05:15:53;11.65;;;6.85;;
3369;SDS011;42042;51.948;7.628;2022-12-07T05:18:22;12.32;;;6.03;;
3369;SDS011;42042;51.948;7.628;2022-12-07T05:20:49;8.68;;;6.35;;
3369;SDS011;42042;51.948;7.628;2022-12-07T05:23:16;18.20;;;6.55;;
3369;SDS011;42042;51.948;7.628;2022-12-07T05:25:44;9.45;;;6.65;;
3369;SDS011;42042;51.948;7.628;2022-12-07T05:28:11;17.00;;;6.63;;
3369;SDS011;42042;51.948;7.628;2022-12-07T05:30:38;13.30;;;7.70;;
3369;SDS011;42042;51.948;7.628;2022-12-07T05:33:06;8.40;;;5.90;;
3369;SDS011;42042;51.948;7.628;2022-12-07T05:35:34;8.20;;;6.10;;
3369;SDS011;42042;51.948;7.628;2022-12-07T05:38:02;12.98;;;6.35;;
3369;SDS011;42042;51.948;7.628;2022-12-07T05:40:30;13.32;;;6.57;;
3369;SDS011;42042;51.948;7.628;2022-12-07T05:42:57;15.38;;;6.65;;
3369;SDS011;42042;51.948;7.628;2022-12-07T05:45:24;12.40;;;5.40;;
3369;SDS011;42042;51.948;7.628;2022-12-07T05:47:51;11.85;;;5.90;;
3369;SDS011;42042;51.948;7.628;2022-12-07T05:50:27;13.40;;;6.45;;
3369;SDS011;42042;51.948;7.628;2022-12-07T05:52:56;8.48;;;4.78;;
3369;SDS011;42042;51.948;7.628;2022-12-07T05:55:23;9.85;;;6.38;;
3369;SDS011;42042;51.948;7.628;2022-12-07T05:57:50;10.20;;;5.30;;
3369;SDS011;42042;51.948;7.628;2022-12-07T06:00:31;6.90;;;5.47;;
3369;SDS011;42042;51.948;7.628;2022-12-07T06:02:58;13.05;;;5.22;;
3369;SDS011;42042;51.948;7.628;2022-12-07T06:05:25;13.38;;;5.40;;
3369;SDS011;42042;51.948;7.628;2022-12-07T06:07:53;9.05;;;5.05;;
3369;SDS011;42042;51.948;7.628;2022-12-07T06:10:21;8.98;;;5.30;;
3369;SDS011;42042;51.948;7.628;2022-12-07T06:12:48;12.30;;;5.40;;
3369;SDS011;42042;51.948;7.628;2022-12-07T06:15:15;5.18;;;3.45;;
3369;SDS011;42042;51.948;7.628;2022-12-07T06:17:42;7.43;;;4.65;;
3369;SDS011;42042;51.948;7.628;2022-12-07T06:20:09;11.35;;;4.55;;
3369;SDS011;42042;51.948;7.628;2022-12-07T06:22:36;8.68;;;4.85;;
3369;SDS011;42042;51.948;7.628;2022-12-07T06:25:04;12.88;;;5.05;;
3369;SDS011;42042;51.948;7.628;2022-12-07T06:27:33;8.90;;;4.43;;
3369;SDS011;42042;51.948;7.628;2022-12-07T06:30:00;15.38;;;4.38;;
3369;SDS011;42042;51.948;7.628;2022-12-07T06:32:31;8.25;;;5.25;;
3369;SDS011;42042;51.948;7.628;2022-12-07T06:34:59;9.32;;;4.28;;
3369;SDS011;42042;51.948;7.628;2022-12-07T06:37:26;9.38;;;6.07;;
3369;SDS011;42042;51.948;7.628;2022-12-07T06:39:53;5.80;;;4.13;;
3369;SDS011;42042;51.948;7.628;2022-12-07T06:42:21;8.82;;;4.75;;
3369;SDS011;42042;51.948;7.628;2022-12-07T06:44:49;10.13;;;4.35;;
3369;SDS011;42042;51.948;7.628;2022-12-07T06:47:16;4.90;;;4.35;;
3369;SDS011;42042;51.948;7.628;2022-12-07T06:49:44;8.45;;;3.95;;
3369;SDS011;42042;51.948;7.628;2022-12-07T06:52:11;9.63;;;4.18;;
3369;SDS011;42042;51.948;7.628;2022-12-07T06:54:38;13.48;;;4.82;;
3369;SDS011;42042;51.948;7.628;2022-12-07T06:57:05;9.63;;;4.30;;
3369;SDS011;42042;51.948;7.628;2022-12-07T06:59:32;7.25;;;4.70;;
3369;SDS011;42042;51.948;7.628;2022-12-07T07:02:01;9.30;;;3.40;;
3369;SDS011;42042;51.948;7.628;2022-12-07T07:04:28;6.68;;;3.78;;
3369;SDS011;42042;51.948;7.628;2022-12-07T07:06:55;14.18;;;4.07;;
3369;SDS011;42042;51.948;7.628;2022-12-07T07:09:23;11.75;;;4.75;;
3369;SDS011;42042;51.948;7.628;2022-12-07T07:11:50;10.90;;;4.35;;
3369;SDS011;42042;51.948;7.628;2022-12-07T07:14:17;9.75;;;4.75;;
3369;SDS011;42042;51.948;7.628;2022-12-07T07:16:46;11.30;;;5.93;;
3369;SDS011;42042;51.948;7.628;2022-12-07T07:19:14;11.60;;;5.43;;
3369;SDS011;42042;51.948;7.628;2022-12-07T07:21:41;12.60;;;6.03;;
3369;SDS011;42042;51.948;7.628;2022-12-07T07:24:09;9.50;;;5.10;;
3369;SDS011;42042;51.948;7.628;2022-12-07T07:26:36;8.63;;;5.93;;
3369;SDS011;42042;51.948;7.628;2022-12-07T07:29:03;10.10;;;6.00;;
3369;SDS011;42042;51.948;7.628;2022-12-07T07:31:30;17.42;;;5.70;;
3369;SDS011;42042;51.948;7.628;2022-12-07T07:34:00;11.45;;;6.78;;
3369;SDS011;42042;51.948;7.628;2022-12-07T07:36:28;15.90;;;6.13;;
3369;SDS011;42042;51.948;7.628;2022-12-07T07:38:56;9.38;;;6.50;;
3369;SDS011;42042;51.948;7.628;2022-12-07T07:41:23;15.15;;;6.88;;
3369;SDS011;42042;51.948;7.628;2022-12-07T07:43:50;13.93;;;6.43;;
3369;SDS011;42042;51.948;7.628;2022-12-07T07:46:17;10.85;;;5.60;;
3369;SDS011;42042;51.948;7.628;2022-12-07T07:48:44;8.77;;;7.07;;
3369;SDS011;42042;51.948;7.628;2022-12-07T07:51:12;14.27;;;4.80;;
3369;SDS011;42042;51.948;7.628;2022-12-07T07:53:40;6.90;;;4.32;;
3369;SDS011;42042;51.948;7.628;2022-12-07T07:56:07;8.85;;;5.80;;
3369;SDS011;42042;51.948;7.628;2022-12-07T07:58:34;15.55;;;5.68;;
3369;SDS011;42042;51.948;7.628;2022-12-07T08:01:04;16.75;;;5.70;;
3369;SDS011;42042;51.948;7.628;2022-12-07T08:03:31;11.20;;;5.85;;
3369;SDS011;42042;51.948;7.628;2022-12-07T08:05:59;7.85;;;5.47;;
3369;SDS011;42042;51.948;7.628;2022-12-07T08:08:26;14.52;;;6.18;;
3369;SDS011;42042;51.948;7.628;2022-12-07T08:10:54;15.90;;;5.55;;
3369;SDS011;42042;51.948;7.628;2022-12-07T08:13:25;14.57;;;5.80;;
3369;SDS011;42042;51.948;7.628;2022-12-07T08:15:53;6.75;;;5.13;;
3369;SDS011;42042;51.948;7.628;2022-12-07T08:18:20;13.32;;;5.88;;
3369;SDS011;42042;51.948;7.628;2022-12-07T08:20:47;11.20;;;5.25;;
3369;SDS011;42042;51.948;7.628;2022-12-07T08:23:14;6.53;;;4.85;;
3369;SDS011;42042;51.948;7.628;2022-12-07T08:25:41;7.43;;;5.10;;
3369;SDS011;42042;51.948;7.628;2022-12-07T08:28:10;12.23;;;6.22;;
3369;SDS011;42042;51.948;7.628;2022-12-07T08:30:37;9.15;;;6.22;;
3369;SDS011;42042;51.948;7.628;2022-12-07T08:33:04;10.63;;;6.28;;
3369;SDS011;42042;51.948;7.628;2022-12-07T08:35:32;9.00;;;5.68;;
3369;SDS011;42042;51.948;7.628;2022-12-07T08:37:59;10.13;;;6.13;;
3369;SDS011;42042;51.948;7.628;2022-12-07T08:40:27;11.25;;;6.40;;
3369;SDS011;42042;51.948;7.628;2022-12-07T08:42:54;12.05;;;5.88;;
3369;SDS011;42042;51.948;7.628;2022-12-07T08:45:23;13.82;;;5.30;;
3369;SDS011;42042;51.948;7.628;2022-12-07T08:47:50;7.03;;;5.60;;
3369;SDS011;42042;51.948;7.628;2022-12-07T08:50:18;12.05;;;4.70;;
3369;SDS011;42042;51.948;7.628;2022-12-07T08:52:47;9.70;;;5.57;;
3369;SDS011;42042;51.948;7.628;2022-12-07T08:55:15;9.48;;;6.13;;
3369;SDS011;42042;51.948;7.628;2022-12-07T08:57:42;8.18;;;5.32;;
3369;SDS011;42042;51.948;7.628;2022-12-07T09:00:10;8.25;;;5.32;;
3369;SDS011;42042;51.948;7.628;2022-12-07T09:02:39;6.07;;;4.78;;
3369;SDS011;42042;51.948;7.628;2022-12-07T09:05:06;11.65;;;5.80;;
3369;SDS011;42042;51.948;7.628;2022-12-07T09:07:34;14.60;;;5.72;;
3369;SDS011;42042;51.948;7.628;2022-12-07T09:10:02;11.38;;;5.18;;
3369;SDS011;42042;51.948;7.628;2022-12-07T09:12:30;8.25;;;5.60;;
3369;SDS011;42042;51.948;7.628;2022-12-07T09:14:57;13.93;;;5.07;;
3369;SDS011;42042;51.948;7.628;2022-12-07T09:17:25;6.18;;;4.68;;
3369;SDS011;42042;51.948;7.628;2022-12-07T09:19:54;11.07;;;4.95;;
3369;SDS011;42042;51.948;7.628;2022-12-07T09:22:21;12.07;;;5.97;;
3369;SDS011;42042;51.948;7.628;2022-12-07T09:24:48;9.50;;;5.00;;
3369;SDS011;42042;51.948;7.628;2022-12-07T09:27:15;9.30;;;5.47;;
3369;SDS011;42042;51.948;7.628;2022-12-07T09:29:43;9.52;;;4.97;;
3369;SDS011;42042;51.948;7.628;2022-12-07T09:32:11;6.63;;;4.45;;
3369;SDS011;42042;51.948;7.628;2022-12-07T09:34:39;10.35;;;5.13;;
3369;SDS011;42042;51.948;7.628;2022-12-07T09:37:07;8.13;;;4.60;;
3369;SDS011;42042;51.948;7.628;2022-12-07T09:39:38;11.50;;;4.60;;
3369;SDS011;42042;51.948;7.628;2022-12-07T09:42:05;8.73;;;3.55;;
3369;SDS011;42042;51.948;7.628;2022-12-07T09:44:35;4.82;;;4.38;;
3369;SDS011;42042;51.948;7.628;2022-12-07T09:47:02;9.13;;;4.20;;
3369;SDS011;42042;51.948;7.628;2022-12-07T09:49:31;17.13;;;4.38;;
3369;SDS011;42042;51.948;7.628;2022-12-07T09:52:02;8.07;;;3.72;;
3369;SDS011;42042;51.948;7.628;2022-12-07T09:54:31;17.40;;;4.05;;
3369;SDS011;42042;51.948;7.628;2022-12-07T09:57:01;12.88;;;4.53;;
3369;SDS011;42042;51.948;7.628;2022-12-07T09:59:28;13.07;;;4.53;;
3369;SDS011;42042;51.948;7.628;2022-12-07T10:01:55;7.57;;;4.03;;
3369;SDS011;42042;51.948;7.628;2022-12-07T10:04:43;6.10;;;4.68;;
3369;SDS011;42042;51.948;7.628;2022-12-07T10:07:11;6.53;;;4.03;;
3369;SDS011;42042;51.948;7.628;2022-12-07T10:09:39;10.55;;;3.75;;
3369;SDS011;42042;51.948;7.628;2022-12-07T10:12:08;12.80;;;4.95;;
3369;SDS011;42042;51.948;7.628;2022-12-07T10:14:37;8.00;;;3.65;;
3369;SDS011;42042;51.948;7.628;2022-12-07T10:17:17;8.85;;;3.70;;
3369;SDS011;42042;51.948;7.628;2022-12-07T10:20:00;6.93;;;3.20;;
3369;SDS011;42042;51.948;7.628;2022-12-07T10:22:35;7.00;;;3.42;;
3369;SDS011;42042;51.948;7.628;2022-12-07T10:25:09;5.32;;;3.55;;
3369;SDS011;42042;51.948;7.628;2022-12-07T10:27:44;7.90;;;3.78;;
3369;SDS011;42042;51.948;7.628;2022-12-07T10:30:23;10.52;;;4.05;;
3369;SDS011;42042;51.948;7.628;2022-12-07T10:32:51;5.28;;;3.63;;
3369;SDS011;42042;51.948;7.628;2022-12-07T10:35:22;15.18;;;3.38;;
3369;SDS011;42042;51.948;7.628;2022-12-07T10:37:50;4.85;;;3.10;;
3369;SDS011;42042;51.948;7.628;2022-12-07T10:40:27;5.70;;;2.92;;
3369;SDS011;42042;51.948;7.628;2022-12-07T10:43:01;3.03;;;2.70;;
3369;SDS011;42042;51.948;7.628;2022-12-07T10:45:28;5.10;;;2.95;;
3369;SDS011;42042;51.948;7.628;2022-12-07T10:47:56;7.38;;;3.88;;
3369;SDS011;42042;51.948;7.628;2022-12-07T10:50:32;8.40;;;3.00;;
3369;SDS011;42042;51.948;7.628;2022-12-07T10:56:03;3.92;;;2.70;;
3369;SDS011;42042;51.948;7.628;2022-12-07T10:58:37;6.38;;;3.47;;
3369;SDS011;42042;51.948;7.628;2022-12-07T11:01:09;8.10;;;3.45;;
3369;SDS011;42042;51.948;7.628;2022-12-07T11:03:43;5.03;;;2.92;;
3369;SDS011;42042;51.948;7.628;2022-12-07T11:06:16;9.95;;;3.50;;
3369;SDS011;42042;51.948;7.628;2022-12-07T11:08:59;11.10;;;2.70;;
3369;SDS011;42042;51.948;7.628;2022-12-07T11:11:30;12.32;;;3.70;;
3369;SDS011;42042;51.948;7.628;2022-12-07T11:14:02;9.27;;;2.95;;
3369;SDS011;42042;51.948;7.628;2022-12-07T11:19:06;8.13;;;3.55;;
3369;SDS011;42042;51.948;7.628;2022-12-07T11:21:40;7.43;;;2.75;;
3369;SDS011;42042;51.948;7.628;2022-12-07T11:24:13;4.82;;;2.72;;
3369;SDS011;42042;51.948;7.628;2022-12-07T11:26:47;8.93;;;3.17;;
3369;SDS011;42042;51.948;7.628;2022-12-07T11:29:21;4.68;;;2.83;;
3369;SDS011;42042;51.948;7.628;2022-12-07T11:31:55;5.80;;;2.72;;
3369;SDS011;42042;51.948;7.628;2022-12-07T11:34:25;12.98;;;2.80;;
3369;SDS011;42042;51.948;7.628;2022-12-07T11:36:54;8.30;;;2.75;;
3369;SDS011;42042;51.948;7.628;2022-12-07T11:39:23;9.52;;;3.20;;
3369;SDS011;42042;51.948;7.628;2022-12-07T11:41:55;4.97;;;2.35;;
3369;SDS011;42042;51.948;7.628;2022-12-07T11:44:26;3.33;;;3.10;;
3369;SDS011;42042;51.948;7.628;2022-12-07T11:46:58;8.93;;;2.63;;
3369;SDS011;42042;51.948;7.628;2022-12-07T11:49:27;5.45;;;3.05;;
3369;SDS011;42042;51.948;7.628;2022-12-07T11:52:01;7.00;;;2.70;;
3369;SDS011;42042;51.948;7.628;2022-12-07T11:54:30;7.68;;;2.70;;
3369;SDS011;42042;51.948;7.628;2022-12-07T11:57:02;4.25;;;3.33;;
3369;SDS011;42042;51.948;7.628;2022-12-07T11:59:31;4.88;;;2.90;;
3369;SDS011;42042;51.948;7.628;2022-12-07T12:02:03;3.78;;;2.55;;
3369;SDS011;42042;51.948;7.628;2022-12-07T12:04:41;8.98;;;2.95;;
3369;SDS011;42042;51.948;7.628;2022-12-07T12:07:21;5.13;;;2.35;;
3369;SDS011;42042;51.948;7.628;2022-12-07T12:09:49;10.77;;;3.03;;
3369;SDS011;42042;51.948;7.628;2022-12-07T12:12:23;3.60;;;2.30;;
3369;SDS011;42042;51.948;7.628;2022-12-07T12:14:59;5.70;;;2.40;;
3369;SDS011;42042;51.948;7.628;2022-12-07T12:17:32;9.85;;;2.50;;
3369;SDS011;42042;51.948;7.628;2022-12-07T12:20:04;4.78;;;2.15;;
3369;SDS011;42042;51.948;7.628;2022-12-07T12:22:34;7.80;;;2.58;;
3369;SDS011;42042;51.948;7.628;2022-12-07T12:25:04;7.13;;;2.42;;
3369;SDS011;42042;51.948;7.628;2022-12-07T12:27:34;7.32;;;3.05;;
3369;SDS011;42042;51.948;7.628;2022-12-07T12:30:03;3.58;;;2.10;;
3369;SDS011;42042;51.948;7.628;2022-12-07T12:32:33;6.68;;;2.60;;
3369;SDS011;42042;51.948;7.628;2022-12-07T12:37:45;7.25;;;2.90;;
3369;SDS011;42042;51.948;7.628;2022-12-07T12:43:00;2.40;;;1.63;;
3369;SDS011;42042;51.948;7.628;2022-12-07T12:45:27;5.95;;;3.28;;
3369;SDS011;42042;51.948;7.628;2022-12-07T12:47:58;4.38;;;1.60;;
3369;SDS011;42042;51.948;7.628;2022-12-07T12:50:27;3.72;;;2.75;;
3369;SDS011;42042;51.948;7.628;2022-12-07T12:52:55;4.97;;;2.40;;
3369;SDS011;42042;51.948;7.628;2022-12-07T12:58:27;7.70;;;2.55;;
3369;SDS011;42042;51.948;7.628;2022-12-07T13:03:51;3.72;;;2.63;;
3369;SDS011;42042;51.948;7.628;2022-12-07T13:06:19;4.30;;;3.17;;
3369;SDS011;42042;51.948;7.628;2022-12-07T13:08:47;5.53;;;3.10;;
3369;SDS011;42042;51.948;7.628;2022-12-07T13:11:17;6.38;;;3.47;;
3369;SDS011;42042;51.948;7.628;2022-12-07T13:13:47;3.28;;;2.95;;
3369;SDS011;42042;51.948;7.628;2022-12-07T13:16:37;11.15;;;3.53;;
3369;SDS011;42042;51.948;7.628;2022-12-07T13:21:47;5.57;;;2.70;;
3369;SDS011;42042;51.948;7.628;2022-12-07T13:24:14;11.57;;;3.97;;
3369;SDS011;42042;51.948;7.628;2022-12-07T13:26:42;4.90;;;3.15;;
3369;SDS011;42042;51.948;7.628;2022-12-07T13:29:13;8.70;;;3.50;;
3369;SDS011;42042;51.948;7.628;2022-12-07T13:31:40;5.55;;;3.00;;
3369;SDS011;42042;51.948;7.628;2022-12-07T13:36:50;9.02;;;2.40;;
3369;SDS011;42042;51.948;7.628;2022-12-07T13:39:18;6.28;;;2.78;;
3369;SDS011;42042;51.948;7.628;2022-12-07T13:41:49;6.05;;;3.25;;
3369;SDS011;42042;51.948;7.628;2022-12-07T13:44:18;6.30;;;2.80;;
3369;SDS011;42042;51.948;7.628;2022-12-07T13:46:51;9.52;;;2.75;;
3369;SDS011;42042;51.948;7.628;2022-12-07T13:49:22;5.45;;;2.60;;
3369;SDS011;42042;51.948;7.628;2022-12-07T13:51:49;4.55;;;2.08;;
3369;SDS011;42042;51.948;7.628;2022-12-07T13:54:17;5.68;;;2.03;;
3369;SDS011;42042;51.948;7.628;2022-12-07T13:56:49;8.10;;;2.28;;
3369;SDS011;42042;51.948;7.628;2022-12-07T13:59:17;7.57;;;2.55;;
3369;SDS011;42042;51.948;7.628;2022-12-07T14:01:47;5.05;;;2.28;;
3369;SDS011;42042;51.948;7.628;2022-12-07T14:04:18;8.10;;;2.20;;
3369;SDS011;42042;51.948;7.628;2022-12-07T14:06:49;5.35;;;2.25;;
3369;SDS011;42042;51.948;7.628;2022-12-07T14:09:18;6.45;;;2.60;;
3369;SDS011;42042;51.948;7.628;2022-12-07T14:11:45;6.97;;;2.50;;
3369;SDS011;42042;51.948;7.628;2022-12-07T14:14:13;5.75;;;2.22;;
3369;SDS011;42042;51.948;7.628;2022-12-07T14:16:45;3.53;;;2.60;;
3369;SDS011;42042;51.948;7.628;2022-12-07T14:19:42;6.88;;;2.85;;
3369;SDS011;42042;51.948;7.628;2022-12-07T14:22:17;9.05;;;2.40;;
3369;SDS011;42042;51.948;7.628;2022-12-07T14:24:45;4.47;;;3.05;;
3369;SDS011;42042;51.948;7.628;2022-12-07T14:27:16;5.47;;;2.60;;
3369;SDS011;42042;51.948;7.628;2022-12-07T14:29:44;3.75;;;2.15;;
3369;SDS011;42042;51.948;7.628;2022-12-07T14:32:19;7.40;;;2.05;;
3369;SDS011;42042;51.948;7.628;2022-12-07T14:35:02;3.35;;;1.98;;
3369;SDS011;42042;51.948;7.628;2022-12-07T14:37:30;3.35;;;1.85;;
3369;SDS011;42042;51.948;7.628;2022-12-07T14:39:57;3.85;;;1.60;;
3369;SDS011;42042;51.948;7.628;2022-12-07T14:42:26;2.38;;;2.17;;
3369;SDS011;42042;51.948;7.628;2022-12-07T14:44:55;3.20;;;1.92;;
3369;SDS011;42042;51.948;7.628;2022-12-07T14:47:23;7.35;;;3.28;;
3369;SDS011;42042;51.948;7.628;2022-12-07T14:49:50;7.22;;;1.90;;
3369;SDS011;42042;51.948;7.628;2022-12-07T14:52:19;3.55;;;1.60;;
3369;SDS011;42042;51.948;7.628;2022-12-07T14:54:48;9.57;;;1.95;;
3369;SDS011;42042;51.948;7.628;2022-12-07T14:57:15;10.80;;;2.58;;
3369;SDS011;42042;51.948;7.628;2022-12-07T14:59:42;4.05;;;2.05;;
3369;SDS011;42042;51.948;7.628;2022-12-07T15:02:09;4.85;;;1.80;;
3369;SDS011;42042;51.948;7.628;2022-12-07T15:04:37;4.50;;;1.80;;
3369;SDS011;42042;51.948;7.628;2022-12-07T15:07:05;2.80;;;1.80;;
3369;SDS011;42042;51.948;7.628;2022-12-07T15:09:34;5.25;;;1.83;;
3369;SDS011;42042;51.948;7.628;2022-12-07T15:12:02;3.00;;;1.60;;
3369;SDS011;42042;51.948;7.628;2022-12-07T15:14:29;3.58;;;2.60;;
3369;SDS011;42042;51.948;7.628;2022-12-07T15:16:56;2.85;;;1.63;;
3369;SDS011;42042;51.948;7.628;2022-12-07T15:19:24;2.40;;;1.98;;
3369;SDS011;42042;51.948;7.628;2022-12-07T15:21:52;4.13;;;2.08;;
3369;SDS011;42042;51.948;7.628;2022-12-07T15:24:20;5.18;;;2.22;;
3369;SDS011;42042;51.948;7.628;2022-12-07T15:26:50;4.43;;;2.10;;